createdAt,value
2019-02-19T00:02:12.766Z,7.42
2019-02-19T00:04:43.879Z,7.46
2019-02-19T00:07:15.090Z,7.52
2019-02-19T00:09:46.316Z,7.58
2019-02-19T00:12:17.998Z,7.65
2019-02-19T00:14:49.250Z,7.71
2019-02-19T00:17:20.400Z,7.78
2019-02-19T00:19:51.651Z,7.82
2019-02-19T00:22:22.924Z,7.86
2019-02-19T00:24:54.131Z,7.90
2019-02-19T00:27:25.458Z,7.93
2019-02-19T00:29:56.715Z,7.96
2019-02-19T00:32:27.913Z,7.97
2019-02-19T00:34:59.067Z,8.01
2019-02-19T00:37:30.320Z,8.05
2019-02-19T00:40:01.497Z,8.08
2019-02-19T00:42:33.791Z,8.11
2019-02-19T00:45:05.965Z,8.14
2019-02-19T00:47:37.227Z,8.17
2019-02-19T00:50:09.271Z,8.20
2019-02-19T00:52:40.473Z,8.22
2019-02-19T00:55:11.923Z,8.25
2019-02-19T00:57:43.178Z,8.28
2019-02-19T01:00:14.706Z,8.29
2019-02-19T01:02:45.899Z,8.31
2019-02-19T01:05:17.084Z,8.34
2019-02-19T01:07:49.032Z,8.35
2019-02-19T01:10:20.391Z,8.35
2019-02-19T01:12:51.556Z,8.38
2019-02-19T01:15:25.433Z,8.40
2019-02-19T01:17:55.729Z,8.43
2019-02-19T01:20:28.088Z,8.45
2019-02-19T01:22:59.347Z,8.46
2019-02-19T01:25:30.600Z,8.50
2019-02-19T01:28:01.809Z,8.51
2019-02-19T01:30:32.992Z,8.53
2019-02-19T01:33:04.350Z,8.53
2019-02-19T01:35:35.560Z,8.54
2019-02-19T01:38:06.832Z,8.53
2019-02-19T01:40:38.182Z,8.54
2019-02-19T01:43:09.402Z,8.53
2019-02-19T01:45:40.585Z,8.52
2019-02-19T01:48:11.776Z,8.53
2019-02-19T01:50:42.986Z,8.55
2019-02-19T01:53:14.382Z,8.55
2019-02-19T01:55:45.567Z,8.55
2019-02-19T01:58:17.723Z,8.57
2019-02-19T02:00:49.090Z,8.57
2019-02-19T02:03:20.403Z,8.55
2019-02-19T02:05:51.575Z,8.55
2019-02-19T02:08:22.899Z,8.52
2019-02-19T02:10:54.041Z,8.50
2019-02-19T02:13:25.364Z,8.49
2019-02-19T02:15:56.669Z,8.46
2019-02-19T02:18:27.864Z,8.43
2019-02-19T02:20:59.022Z,8.39
2019-02-19T02:23:30.185Z,8.36
2019-02-19T02:26:01.499Z,8.33
2019-02-19T02:28:32.761Z,8.32
2019-02-19T02:31:04.195Z,8.31
2019-02-19T02:33:35.477Z,8.31
2019-02-19T02:36:06.659Z,8.31
2019-02-19T02:38:37.968Z,8.31
2019-02-19T02:41:09.157Z,8.32
2019-02-19T02:43:40.445Z,8.32
2019-02-19T02:46:11.630Z,8.33
2019-02-19T02:48:44.110Z,8.31
2019-02-19T02:51:15.294Z,8.33
2019-02-19T02:53:46.538Z,8.31
2019-02-19T02:56:17.725Z,8.31
2019-02-19T02:58:48.945Z,8.31
2019-02-19T03:01:20.193Z,8.31
2019-02-19T03:03:52.683Z,8.30
2019-02-19T03:06:42.799Z,8.29
2019-02-19T03:09:14.229Z,8.29
2019-02-19T03:11:45.395Z,8.29
2019-02-19T03:14:16.651Z,8.28
2019-02-19T03:16:47.853Z,8.29
2019-02-19T03:19:19.064Z,8.32
2019-02-19T03:21:50.334Z,8.36
2019-02-19T03:24:21.558Z,8.38
2019-02-19T03:26:52.733Z,8.41
2019-02-19T03:29:23.927Z,8.46
2019-02-19T03:31:55.116Z,8.52
2019-02-19T03:34:26.297Z,8.58
2019-02-19T03:36:57.444Z,8.64
2019-02-19T03:39:28.619Z,8.71
2019-02-19T03:41:59.821Z,8.76
2019-02-19T03:44:31.016Z,8.78
2019-02-19T03:47:02.341Z,8.79
2019-02-19T03:49:34.689Z,8.82
2019-02-19T03:52:05.848Z,8.85
2019-02-19T03:54:37.369Z,8.88
2019-02-19T03:57:08.725Z,8.92
2019-02-19T03:59:40.053Z,8.95
2019-02-19T04:02:11.247Z,8.96
2019-02-19T04:04:42.475Z,8.98
2019-02-19T04:07:13.776Z,8.98
2019-02-19T04:09:45.166Z,9.00
2019-02-19T04:12:16.422Z,8.99
2019-02-19T04:14:47.647Z,8.98
2019-02-19T04:17:18.940Z,8.99
2019-02-19T04:19:50.478Z,8.98
2019-02-19T04:22:21.738Z,8.99
2019-02-19T04:24:52.904Z,8.99
2019-02-19T04:27:24.120Z,8.97
2019-02-19T04:29:55.343Z,8.95
2019-02-19T04:32:26.536Z,8.88
2019-02-19T04:34:57.808Z,8.82
2019-02-19T04:37:29.990Z,8.75
2019-02-19T04:40:01.399Z,8.72
2019-02-19T04:42:32.583Z,8.69
2019-02-19T04:45:03.873Z,8.65
2019-02-19T04:47:35.085Z,8.62
2019-02-19T04:50:06.918Z,8.59
2019-02-19T04:52:38.110Z,8.56
2019-02-19T04:55:09.303Z,8.54
2019-02-19T04:57:40.507Z,8.53
2019-02-19T05:00:12.600Z,8.49
2019-02-19T05:02:43.840Z,8.47
2019-02-19T05:05:15.043Z,8.44
2019-02-19T05:07:46.241Z,8.40
2019-02-19T05:10:17.430Z,8.37
2019-02-19T05:12:48.608Z,8.36
2019-02-19T05:15:19.988Z,8.34
2019-02-19T05:17:51.221Z,8.31
2019-02-19T05:20:22.425Z,8.27
2019-02-19T05:22:53.598Z,8.25
2019-02-19T05:25:24.839Z,8.20
2019-02-19T05:27:56.098Z,8.15
2019-02-19T05:30:27.436Z,8.09
2019-02-19T05:32:58.708Z,8.12
2019-02-19T05:35:29.944Z,8.13
2019-02-19T05:38:01.167Z,8.14
2019-02-19T05:40:32.363Z,8.17
2019-02-19T05:43:03.595Z,8.17
2019-02-19T05:45:34.822Z,8.19
2019-02-19T05:48:06.025Z,8.18
2019-02-19T05:50:37.299Z,8.18
2019-02-19T05:53:08.612Z,8.18
2019-02-19T05:55:39.906Z,8.18
2019-02-19T05:58:11.224Z,8.16
2019-02-19T06:00:42.486Z,8.17
2019-02-19T06:03:13.763Z,8.18
2019-02-19T06:05:45.103Z,8.19
2019-02-19T06:08:16.362Z,8.23
2019-02-19T06:10:47.572Z,8.23
2019-02-19T06:13:18.876Z,8.23
2019-02-19T06:15:50.069Z,8.24
2019-02-19T06:18:21.308Z,8.23
2019-02-19T06:20:52.494Z,8.23
2019-02-19T06:23:23.662Z,8.21
2019-02-19T06:25:54.925Z,8.17
2019-02-19T06:28:26.169Z,8.16
2019-02-19T06:30:57.392Z,8.14
2019-02-19T06:33:28.628Z,8.10
2019-02-19T06:35:59.768Z,8.06
2019-02-19T06:38:31.050Z,8.06
2019-02-19T06:41:02.230Z,8.06
2019-02-19T06:43:34.399Z,8.06
2019-02-19T06:46:05.614Z,8.08
2019-02-19T06:48:36.862Z,8.07
2019-02-19T06:51:08.055Z,8.08
2019-02-19T06:53:39.280Z,8.10
2019-02-19T06:56:10.554Z,8.11
2019-02-19T06:58:41.789Z,8.12
2019-02-19T07:01:13.199Z,8.13
2019-02-19T07:03:54.893Z,8.15
2019-02-19T07:06:26.100Z,8.16
2019-02-19T07:08:57.350Z,8.18
2019-02-19T07:11:28.748Z,8.18
2019-02-19T07:13:59.992Z,8.18
2019-02-19T07:16:31.234Z,8.17
2019-02-19T07:19:02.486Z,8.14
2019-02-19T07:21:33.724Z,8.15
2019-02-19T07:24:04.963Z,8.14
2019-02-19T07:26:36.116Z,8.17
2019-02-19T07:29:07.395Z,8.18
2019-02-19T07:31:38.573Z,8.21
2019-02-19T07:34:09.794Z,8.25
2019-02-19T07:36:40.955Z,8.27
2019-02-19T07:39:12.204Z,8.29
2019-02-19T07:41:43.386Z,8.31
2019-02-19T07:44:14.637Z,8.31
2019-02-19T07:46:45.877Z,8.34
2019-02-19T07:49:17.066Z,8.37
2019-02-19T07:51:48.259Z,8.40
2019-02-19T07:54:19.483Z,8.42
2019-02-19T07:56:50.697Z,8.44
2019-02-19T07:59:23.198Z,8.45
2019-02-19T08:01:54.388Z,8.48
2019-02-19T08:04:25.620Z,8.51
2019-02-19T08:06:56.756Z,8.54
2019-02-19T08:09:28.056Z,8.57
2019-02-19T08:11:59.277Z,8.62
2019-02-19T08:14:30.488Z,8.66
2019-02-19T08:17:01.742Z,8.68
2019-02-19T08:19:32.933Z,8.70
2019-02-19T08:22:04.162Z,8.73
2019-02-19T08:24:35.480Z,8.75
2019-02-19T08:27:06.659Z,8.81
2019-02-19T08:29:37.866Z,8.84
2019-02-19T08:32:09.135Z,8.89
2019-02-19T08:34:40.396Z,8.92
2019-02-19T08:37:11.557Z,8.98
2019-02-19T08:39:42.762Z,9.04
2019-02-19T08:42:13.925Z,9.07
2019-02-19T08:44:45.133Z,9.12
2019-02-19T08:47:16.340Z,9.18
2019-02-19T08:49:47.524Z,9.20
2019-02-19T08:52:18.875Z,9.25
2019-02-19T08:54:50.132Z,9.27
2019-02-19T08:57:21.328Z,9.32
2019-02-19T08:59:52.525Z,9.37
2019-02-19T09:02:23.778Z,9.40
2019-02-19T09:04:54.987Z,9.42
2019-02-19T09:07:26.140Z,9.43
2019-02-19T09:09:57.384Z,9.38
2019-02-19T09:12:28.762Z,9.38
2019-02-19T09:15:00.034Z,9.37
2019-02-19T09:17:31.268Z,9.38
2019-02-19T09:20:02.571Z,9.42
2019-02-19T09:22:33.978Z,9.42
2019-02-19T09:25:05.266Z,9.44
2019-02-19T09:27:36.518Z,9.47
2019-02-19T09:30:09.360Z,9.50
2019-02-19T09:32:40.570Z,9.55
2019-02-19T09:35:12.151Z,9.55
2019-02-19T09:37:43.265Z,9.57
2019-02-19T09:40:14.517Z,9.60
2019-02-19T09:42:45.704Z,9.65
2019-02-19T09:45:16.881Z,9.72
2019-02-19T09:47:48.082Z,9.74
2019-02-19T09:50:20.413Z,9.78
2019-02-19T09:52:59.751Z,9.84
2019-02-19T09:55:24.640Z,9.86
2019-02-19T09:57:55.913Z,9.90
2019-02-19T10:00:27.146Z,9.92
2019-02-19T10:02:58.366Z,9.93
2019-02-19T10:05:29.621Z,9.95
2019-02-19T10:08:00.776Z,10.00
2019-02-19T10:10:32.033Z,10.02
2019-02-19T10:13:04.201Z,10.02
2019-02-19T10:15:35.421Z,10.03
2019-02-19T10:18:10.308Z,10.06
2019-02-19T10:20:39.487Z,10.06
2019-02-19T10:23:10.778Z,10.09
2019-02-19T10:25:42.106Z,10.13
2019-02-19T10:31:16.727Z,10.19
2019-02-19T10:33:48.181Z,10.26
2019-02-19T10:36:19.437Z,10.30
2019-02-19T10:38:50.651Z,10.34
2019-02-19T10:41:21.929Z,10.39
2019-02-19T10:43:53.225Z,10.43
2019-02-19T10:46:24.552Z,10.47
2019-02-19T10:48:55.871Z,10.52
2019-02-19T10:51:28.856Z,10.54
2019-02-19T10:54:00.347Z,10.54
2019-02-19T10:56:31.624Z,10.59
2019-02-19T10:59:02.828Z,10.59
2019-02-19T11:01:33.995Z,10.61
2019-02-19T11:04:05.180Z,10.61
2019-02-19T11:06:36.620Z,10.61
2019-02-19T11:09:07.866Z,10.62
2019-02-19T11:11:39.169Z,10.64
2019-02-19T11:14:10.425Z,10.59
2019-02-19T11:16:41.896Z,10.52
2019-02-19T11:19:13.140Z,10.55
2019-02-19T11:21:44.387Z,10.54
2019-02-19T11:24:15.768Z,10.55
2019-02-19T11:26:47.007Z,10.55
2019-02-19T11:29:18.304Z,10.57
2019-02-19T11:31:49.614Z,10.54
2019-02-19T11:34:20.888Z,10.55
2019-02-19T11:36:52.102Z,10.55
2019-02-19T11:39:23.318Z,10.54
2019-02-19T11:41:54.785Z,10.57
2019-02-19T11:44:26.017Z,10.58
2019-02-19T11:46:57.202Z,10.67
2019-02-19T11:49:28.530Z,10.72
2019-02-19T11:51:59.792Z,10.83
2019-02-19T11:54:31.043Z,10.87
2019-02-19T11:57:02.224Z,10.86
2019-02-19T11:59:34.420Z,10.84
2019-02-19T12:02:09.907Z,10.90
2019-02-19T12:04:41.147Z,10.91
2019-02-19T12:07:12.386Z,10.86
2019-02-19T12:09:43.612Z,10.91
2019-02-19T12:12:15.122Z,10.95
2019-02-19T12:14:46.343Z,11.02
2019-02-19T12:17:17.529Z,11.04
2019-02-19T12:19:48.729Z,11.06
2019-02-19T12:22:19.869Z,11.03
2019-02-19T12:24:51.155Z,11.07
2019-02-19T12:27:22.432Z,11.03
2019-02-19T12:29:53.640Z,11.05
2019-02-19T12:32:24.933Z,11.12
2019-02-19T12:34:56.156Z,11.15
2019-02-19T12:37:27.378Z,11.18
2019-02-19T12:39:58.749Z,11.18
2019-02-19T12:42:30.090Z,11.15
2019-02-19T12:45:01.522Z,11.27
2019-02-19T12:47:33.073Z,11.34
2019-02-19T12:50:04.556Z,11.37
2019-02-19T12:52:35.759Z,11.46
2019-02-19T12:55:07.720Z,11.60
2019-02-19T12:57:38.903Z,11.69
2019-02-19T13:00:12.742Z,11.90
2019-02-19T13:02:44.253Z,12.10
2019-02-19T13:05:15.570Z,12.22
2019-02-19T13:07:47.838Z,12.42
2019-02-19T13:10:19.125Z,12.57
2019-02-19T13:12:50.368Z,12.65
2019-02-19T13:15:21.563Z,12.60
2019-02-19T13:17:52.897Z,12.66
2019-02-19T13:20:24.138Z,12.45
2019-02-19T13:22:55.328Z,12.34
2019-02-19T13:25:26.625Z,12.26
2019-02-19T13:27:57.782Z,12.31
2019-02-19T13:30:29.074Z,12.40
2019-02-19T13:33:00.247Z,12.70
2019-02-19T13:35:31.466Z,12.99
2019-02-19T13:38:02.639Z,13.22
2019-02-19T13:40:33.872Z,13.30
2019-02-19T13:43:05.098Z,13.24
2019-02-19T13:45:36.346Z,13.16
2019-02-19T13:48:07.610Z,13.10
2019-02-19T13:50:38.798Z,13.14
2019-02-19T13:53:23.615Z,13.47
2019-02-19T13:55:56.742Z,13.83
2019-02-19T13:58:27.981Z,14.09
2019-02-19T14:00:59.202Z,14.25
2019-02-19T14:03:30.381Z,14.31
2019-02-19T14:06:02.683Z,14.16
2019-02-19T14:08:33.843Z,13.99
2019-02-19T14:11:05.013Z,13.65
2019-02-19T14:13:37.980Z,13.51
2019-02-19T14:16:16.678Z,13.57
2019-02-19T14:18:55.682Z,13.59
2019-02-19T14:21:38.114Z,13.30
2019-02-19T14:24:27.357Z,13.05
2019-02-19T14:27:08.036Z,12.91
2019-02-19T14:30:07.295Z,12.91
2019-02-19T14:33:00.475Z,13.06
2019-02-19T14:35:56.886Z,13.18
2019-02-19T14:38:45.830Z,13.04
2019-02-19T14:41:34.957Z,12.92
2019-02-19T14:44:23.936Z,12.76
2019-02-19T14:47:29.425Z,12.57
2019-02-19T14:50:07.068Z,12.36
2019-02-19T14:52:52.045Z,12.13
2019-02-19T14:55:51.576Z,12.05
2019-02-19T14:58:47.859Z,11.93
2019-02-19T15:01:33.984Z,11.88
2019-02-19T15:04:33.288Z,11.81
2019-02-19T15:07:29.433Z,11.77
2019-02-19T15:10:31.829Z,11.68
2019-02-19T15:13:18.855Z,11.62
2019-02-19T15:15:59.345Z,11.56
2019-02-19T15:18:52.433Z,11.49
2019-02-19T15:21:35.302Z,11.41
2019-02-19T15:24:43.735Z,11.34
2019-02-19T15:27:46.143Z,11.23
2019-02-19T15:30:36.421Z,11.18
2019-02-19T15:33:25.586Z,11.11
2019-02-19T15:36:25.405Z,11.02
2019-02-19T15:39:34.054Z,10.99
2019-02-19T15:42:24.021Z,10.95
2019-02-19T15:45:13.157Z,10.88
2019-02-19T15:48:02.203Z,10.87
2019-02-19T15:50:51.238Z,10.85
2019-02-19T15:53:28.396Z,10.80
2019-02-19T15:56:21.324Z,10.74
2019-02-19T15:59:07.643Z,10.70
2019-02-19T16:01:46.513Z,10.62
2019-02-19T16:04:24.236Z,10.57
2019-02-19T16:07:17.397Z,10.51
2019-02-19T16:10:03.843Z,10.47
2019-02-19T16:12:52.338Z,10.42
2019-02-19T16:15:57.508Z,10.43
2019-02-19T16:18:34.435Z,10.39
2019-02-19T16:21:23.487Z,10.38
2019-02-19T16:24:14.275Z,10.37
2019-02-19T16:27:13.848Z,10.35
2019-02-19T16:30:12.895Z,10.34
2019-02-19T16:33:03.318Z,10.31
2019-02-19T16:35:53.836Z,10.27
2019-02-19T16:38:36.456Z,10.28
2019-02-19T16:41:19.256Z,10.26
2019-02-19T16:44:01.442Z,10.24
2019-02-19T16:46:50.391Z,10.22
2019-02-19T16:49:46.485Z,10.22
2019-02-19T16:52:24.811Z,10.21
2019-02-19T16:55:18.158Z,10.18
2019-02-19T16:57:57.501Z,10.16
2019-02-19T17:00:34.497Z,10.14
2019-02-19T17:03:23.680Z,10.11
2019-02-19T17:06:16.673Z,10.09
2019-02-19T17:09:06.808Z,10.01
2019-02-19T17:11:49.158Z,9.94
2019-02-19T17:14:48.252Z,9.91
2019-02-19T17:17:53.864Z,9.91
2019-02-19T17:20:40.656Z,9.85
2019-02-19T17:23:20.333Z,9.79
2019-02-19T17:25:59.479Z,9.79
2019-02-19T17:32:00.208Z,9.78
2019-02-19T17:34:46.503Z,9.75
2019-02-19T17:37:35.607Z,9.76
2019-02-19T17:40:13.336Z,9.74
2019-02-19T17:42:51.662Z,9.76
2019-02-19T17:45:57.267Z,9.79
2019-02-19T17:48:53.385Z,9.78
2019-02-19T17:51:34.769Z,9.79
2019-02-19T17:54:28.150Z,9.81
2019-02-19T17:57:33.782Z,9.83
2019-02-19T18:00:28.364Z,9.82
2019-02-19T18:03:17.617Z,9.79
2019-02-19T18:06:13.646Z,9.79
2019-02-19T18:09:00.394Z,9.80
2019-02-19T18:11:53.918Z,9.80
2019-02-19T18:14:56.105Z,9.77
2019-02-19T18:17:32.494Z,9.75
2019-02-19T18:20:04.967Z,9.78
2019-02-19T18:22:36.684Z,9.78
2019-02-19T18:25:08.177Z,9.77
2019-02-19T18:27:39.750Z,9.78
2019-02-19T18:30:11.042Z,9.78
2019-02-19T18:32:42.350Z,9.78
2019-02-19T18:35:13.866Z,9.80
2019-02-19T18:37:45.241Z,9.80
2019-02-19T18:40:16.822Z,9.78
2019-02-19T18:42:48.245Z,9.77
2019-02-19T18:45:19.766Z,9.72
2019-02-19T18:47:51.029Z,9.69
2019-02-19T18:50:22.144Z,9.70
2019-02-19T18:52:53.331Z,9.69
2019-02-19T18:55:24.635Z,9.68
2019-02-19T18:57:55.898Z,9.69
2019-02-19T19:00:27.005Z,9.69
2019-02-19T19:02:58.165Z,9.71
2019-02-19T19:05:29.311Z,9.73
2019-02-19T19:08:00.430Z,9.75
2019-02-19T19:10:31.729Z,9.77
2019-02-19T19:13:03.203Z,9.79
2019-02-19T19:15:34.563Z,9.76
2019-02-19T19:18:05.748Z,9.74
2019-02-19T19:20:36.994Z,9.72
2019-02-19T19:23:09.605Z,9.71
2019-02-19T19:25:40.865Z,9.65
2019-02-19T19:28:12.088Z,9.56
2019-02-19T19:30:43.345Z,9.54
2019-02-19T19:33:14.597Z,9.48
2019-02-19T19:35:45.698Z,9.32
2019-02-19T19:38:16.999Z,9.23
2019-02-19T19:40:48.189Z,9.08
2019-02-19T19:43:19.522Z,8.85
2019-02-19T19:45:50.821Z,8.63
2019-02-19T19:48:21.995Z,8.48
2019-02-19T19:50:53.455Z,8.37
2019-02-19T19:53:24.736Z,8.25
2019-02-19T19:56:00.640Z,8.21
2019-02-19T19:58:32.570Z,8.13
2019-02-19T20:01:03.776Z,8.03
2019-02-19T20:03:35.166Z,7.98
2019-02-19T20:06:07.419Z,7.92
2019-02-19T20:08:39.878Z,7.91
2019-02-19T20:11:11.686Z,7.88
2019-02-19T20:13:42.946Z,7.86
2019-02-19T20:16:15.573Z,7.86
2019-02-19T20:18:46.845Z,7.87
2019-02-19T20:21:26.477Z,7.84
2019-02-19T20:23:51.098Z,7.81
2019-02-19T20:26:22.309Z,7.82
2019-02-19T20:28:53.521Z,7.83
2019-02-19T20:31:24.670Z,7.84
2019-02-19T20:33:56.718Z,7.85
2019-02-19T20:36:28.264Z,7.86
2019-02-19T20:38:59.615Z,7.86
2019-02-19T20:41:31.589Z,7.85
2019-02-19T20:44:02.947Z,7.82
2019-02-19T20:46:34.331Z,7.81
2019-02-19T20:49:05.732Z,7.80
2019-02-19T20:51:38.461Z,7.79
2019-02-19T20:54:09.902Z,7.75
2019-02-19T20:56:41.243Z,7.77
2019-02-19T20:59:12.820Z,7.77
2019-02-19T21:01:44.425Z,7.76
2019-02-19T21:04:17.204Z,7.73
2019-02-19T21:06:48.811Z,7.72
2019-02-19T21:09:22.090Z,7.71
2019-02-19T21:11:54.777Z,7.69
2019-02-19T21:14:26.396Z,7.70
2019-02-19T21:16:57.682Z,7.69
2019-02-19T21:19:28.985Z,7.69
2019-02-19T21:22:01.044Z,7.68
2019-02-19T21:24:33.872Z,7.66
2019-02-19T21:27:07.131Z,7.66
2019-02-19T21:29:38.651Z,7.65
2019-02-19T21:32:09.966Z,7.60
2019-02-19T21:34:41.194Z,7.56
2019-02-19T21:37:12.657Z,7.55
2019-02-19T21:39:43.981Z,7.54
2019-02-19T21:42:15.182Z,7.51
2019-02-19T21:44:46.488Z,7.48
2019-02-19T21:47:18.730Z,7.48
2019-02-19T21:49:53.256Z,7.50
2019-02-19T21:52:24.814Z,7.48
2019-02-19T21:54:56.044Z,7.49
2019-02-19T21:57:27.339Z,7.48
2019-02-19T21:59:58.588Z,7.47
2019-02-19T22:02:29.728Z,7.45
2019-02-19T22:05:01.068Z,7.42
2019-02-19T22:07:32.601Z,7.40
2019-02-19T22:10:03.979Z,7.40
2019-02-19T22:12:36.440Z,7.38
2019-02-19T22:15:07.730Z,7.38
2019-02-19T22:17:38.933Z,7.38
2019-02-19T22:20:19.512Z,7.39
2019-02-19T22:22:50.629Z,7.42
2019-02-19T22:25:21.823Z,7.41
2019-02-19T22:27:53.052Z,7.41
2019-02-19T22:30:24.259Z,7.44
2019-02-19T22:32:55.439Z,7.47
2019-02-19T22:35:26.713Z,7.50
2019-02-19T22:37:57.905Z,7.52
2019-02-19T22:40:29.033Z,7.56
2019-02-19T22:43:01.254Z,7.57
2019-02-19T22:45:33.155Z,7.59
2019-02-19T22:48:04.534Z,7.63
2019-02-19T22:50:35.759Z,7.66
2019-02-19T22:53:25.960Z,7.69
2019-02-19T22:56:02.550Z,7.73
2019-02-19T22:58:33.770Z,7.77
2019-02-19T23:01:14.752Z,7.81
2019-02-19T23:03:46.080Z,7.85
2019-02-19T23:06:17.264Z,7.90
2019-02-19T23:08:48.459Z,7.92
2019-02-19T23:11:19.652Z,7.94
2019-02-19T23:13:50.890Z,7.96
2019-02-19T23:16:22.141Z,8.01
2019-02-19T23:18:53.305Z,8.06
2019-02-19T23:21:24.479Z,8.09
2019-02-19T23:23:55.702Z,8.10
2019-02-19T23:26:27.025Z,8.13
2019-02-19T23:28:58.245Z,8.14
2019-02-19T23:31:29.451Z,8.15
2019-02-19T23:34:00.655Z,8.18
2019-02-19T23:36:39.443Z,8.18
2019-02-19T23:39:10.700Z,8.19
2019-02-19T23:41:42.162Z,8.20
2019-02-19T23:44:13.339Z,8.21
2019-02-19T23:46:44.524Z,8.22
2019-02-19T23:49:15.742Z,8.23
2019-02-19T23:51:46.907Z,8.23
2019-02-19T23:54:18.123Z,8.23
2019-02-19T23:56:49.294Z,8.21
2019-02-19T23:59:20.562Z,8.15
